Time;durP1;ratioP1;P1;durP2;ratioP2;P2;SDS_P1;SDS_P2;PMS_P1;PMS_P2;Temp;Humidity;BMP_temperature;BMP_pressure;BME280_temperature;BME280_humidity;BME280_pressure;Samples;Min_cycle;Max_cycle;Signal;HPM_P1;HPM_P2
2022/05/13 00:02:16;;;;;;;2.95;1.70;;;;;;;14.80;98.03;98775.81;5063344;28;20029;-68
2022/05/13 00:04:41;;;;;;;3.35;1.75;;;;;;;14.89;97.40;98773.72;5055517;28;20112;-68
2022/05/13 00:07:08;;;;;;;4.30;2.20;;;;;;;14.87;96.95;98778.19;5044122;28;20071;-68
2022/05/13 00:12:17;;;;;;;4.07;2.30;;;;;;;14.66;98.78;98767.47;5063388;28;20055;-68
2022/05/13 00:14:44;;;;;;;5.22;2.70;;;;;;;14.74;98.18;98774.25;5063336;28;20029;-68
2022/05/13 00:17:09;;;;;;;4.43;1.65;;;;;;;14.75;98.39;98772.47;5061697;28;20219;-68
2022/05/13 00:19:34;;;;;;;6.20;2.75;;;;;;;14.66;98.74;98771.00;5050775;28;20041;-68
2022/05/13 00:22:00;;;;;;;5.60;1.98;;;;;;;14.66;98.89;98772.78;5043805;28;20033;-68
2022/05/13 00:24:27;;;;;;;3.95;2.08;;;;;;;14.69;98.89;98777.97;5043883;28;20274;-68
2022/05/13 00:26:52;;;;;;;4.30;1.90;;;;;;;14.69;98.77;98772.66;5044075;28;20025;-68
2022/05/13 00:29:18;;;;;;;5.28;2.10;;;;;;;14.70;98.33;98774.38;5045243;28;20029;-68
2022/05/13 00:31:43;;;;;;;4.20;2.30;;;;;;;14.64;98.55;98774.59;5058655;28;20021;-68
2022/05/13 00:34:09;;;;;;;6.43;2.20;;;;;;;14.64;98.71;98774.59;5059518;28;20024;-68
2022/05/13 00:36:36;;;;;;;4.10;2.10;;;;;;;14.64;98.89;98774.59;5062886;28;20028;-68
2022/05/13 00:39:03;;;;;;;7.18;2.42;;;;;;;14.67;98.55;98778.00;5063111;28;20062;-68
2022/05/13 00:41:29;;;;;;;4.38;2.25;;;;;;;14.67;98.45;98777.13;5054106;28;20060;-68
2022/05/13 00:43:55;;;;;;;4.63;1.65;;;;;;;14.56;98.94;98776.66;5045017;28;20029;-68
2022/05/13 00:46:22;;;;;;;4.68;2.03;;;;;;;14.59;99.32;98776.53;5043886;28;20094;-68
2022/05/13 00:48:48;;;;;;;3.67;1.77;;;;;;;14.63;99.11;98772.88;5061581;28;20096;-68
2022/05/13 00:51:18;;;;;;;6.25;2.10;;;;;;;14.65;97.91;98777.19;5057229;28;20021;-68
2022/05/13 00:53:45;;;;;;;4.15;2.08;;;;;;;14.65;97.42;98779.00;5043627;28;20048;-68
2022/05/13 00:56:11;;;;;;;4.25;2.20;;;;;;;14.63;98.21;98772.88;5043583;28;20028;-68
2022/05/13 00:58:39;;;;;;;3.85;2.15;;;;;;;14.60;98.93;98778.25;5043613;28;20025;-68
2022/05/13 01:01:04;;;;;;;4.38;2.70;;;;;;;14.58;98.71;98775.66;5045957;28;20089;-68
2022/05/13 01:03:30;;;;;;;5.10;2.42;;;;;;;14.62;98.69;98771.16;5061359;28;20032;-68
2022/05/13 01:05:59;;;;;;;4.97;2.20;;;;;;;14.51;99.69;98778.56;5063069;28;20051;-68
2022/05/13 01:08:26;;;;;;;3.50;1.77;;;;;;;14.55;99.56;98777.53;5066681;28;20025;-68
2022/05/13 01:10:55;;;;;;;4.63;2.05;;;;;;;14.62;98.35;98776.44;5059489;28;20021;-68
2022/05/13 01:13:23;;;;;;;3.70;2.08;;;;;;;14.65;98.19;98779.00;5055178;28;20029;-68
2022/05/13 01:15:51;;;;;;;3.88;1.95;;;;;;;14.67;98.53;98777.13;5052981;28;20316;-68
2022/05/13 01:18:37;;;;;;;3.78;2.05;;;;;;;14.65;99.27;98777.19;5057625;28;20029;-68
2022/05/13 01:21:06;;;;;;;6.65;2.17;;;;;;;14.58;99.49;98777.44;5046996;28;20202;-68
2022/05/13 01:23:41;;;;;;;8.05;2.70;;;;;;;14.58;98.54;98775.66;5049414;28;20032;-68
2022/05/13 01:26:13;;;;;;;3.83;1.90;;;;;;;14.66;98.49;98778.06;5046895;28;20025;-68
2022/05/13 01:28:43;;;;;;;;;;;;;;;14.67;98.75;98775.38;5047575;28;20036;-68
2022/05/13 01:31:20;;;;;;;2.85;1.73;;;;;;;14.69;98.85;98772.66;5060184;28;19908;-68
2022/05/13 01:33:45;;;;;;;3.17;2.00;;;;;;;14.68;99.11;98765.66;5048121;28;20025;-68
2022/05/13 01:36:12;;;;;;;5.88;1.98;;;;;;;14.78;98.71;98777.66;5049079;28;20289;-68
2022/05/13 01:38:39;;;;;;;3.40;1.70;;;;;;;14.73;99.46;98774.28;5066398;28;20024;-68
2022/05/13 01:41:06;;;;;;;3.70;1.95;;;;;;;14.76;99.12;98763.59;5066636;28;20029;-68
2022/05/13 01:43:33;;;;;;;5.10;2.40;;;;;;;14.71;99.57;98761.09;5049932;28;20280;-68
2022/05/13 01:45:58;;;;;;;3.97;2.03;;;;;;;14.75;98.96;98756.56;5064149;28;20075;-68
2022/05/13 01:48:25;;;;;;;5.30;1.90;;;;;;;14.79;98.56;98752.88;5065987;28;20287;-68
2022/05/13 01:50:50;;;;;;;6.53;2.25;;;;;;;14.73;99.11;98758.38;5065897;28;20321;-68
2022/05/13 01:53:15;;;;;;;5.25;2.05;;;;;;;14.65;100.00;98761.28;5063491;28;20029;-68
2022/05/13 01:55:42;;;;;;;6.72;2.42;;;;;;;14.61;100.00;98764.09;5046425;28;20044;-68
2022/05/13 01:58:13;;;;;;;4.55;2.40;;;;;;;14.69;99.48;98762.06;5046522;28;20021;-68
2022/05/13 02:00:40;;;;;;;3.83;2.13;;;;;;;14.71;99.77;98761.09;5065653;28;20048;-68
2022/05/13 02:05:49;;;;;;;6.45;2.30;;;;;;;14.64;99.32;98764.00;5046249;28;20068;-68
2022/05/13 02:08:16;;;;;;;11.27;2.78;;;;;;;14.59;98.90;98758.00;5063203;28;20112;-68
2022/05/13 02:10:42;;;;;;;5.50;2.40;;;;;;;14.64;98.05;98759.56;5065563;28;20021;-68
2022/05/13 02:13:08;;;;;;;8.95;2.05;;;;;;;14.71;98.22;98749.63;5058584;28;20041;-68
2022/05/13 02:15:33;;;;;;;5.90;2.17;;;;;;;14.71;98.98;98746.97;5055626;28;20075;-68
2022/05/13 02:17:59;;;;;;;8.25;2.55;;;;;;;14.68;98.20;98739.16;5064865;28;20343;-68
2022/05/13 02:20:24;;;;;;;8.07;2.95;;;;;;;14.69;98.09;98746.19;5065514;28;20036;-68
2022/05/13 02:22:49;;;;;;;9.48;2.28;;;;;;;14.73;98.78;98742.50;5062477;28;20016;-68
2022/05/13 02:25:14;;;;;;;3.72;2.10;;;;;;;14.75;99.30;98743.31;5052666;28;20029;-68
2022/05/13 02:27:40;;;;;;;4.32;2.03;;;;;;;14.73;99.90;98745.16;5055954;28;20028;-68
2022/05/13 02:30:06;;;;;;;5.85;2.20;;;;;;;14.71;100.00;98739.03;5045737;28;20052;-68
2022/05/13 02:32:32;;;;;;;3.47;2.25;;;;;;;14.72;99.90;98736.31;5052265;28;20340;-68
2022/05/13 02:34:57;;;;;;;6.65;2.65;;;;;;;14.68;100.00;98733.84;5064816;28;20092;-68
2022/05/13 02:37:22;;;;;;;3.65;2.05;;;;;;;14.70;100.00;98732.00;5052446;28;20021;-68
2022/05/13 02:39:48;;;;;;;8.77;2.72;;;;;;;14.67;100.00;98740.03;5045556;28;20028;-68
2022/05/13 02:42:14;;;;;;;7.25;2.10;;;;;;;14.63;100.00;98735.78;5059386;28;20036;-68
2022/05/13 02:44:40;;;;;;;3.97;2.15;;;;;;;14.66;100.00;98740.97;5065090;28;20083;-68
2022/05/13 02:47:05;;;;;;;8.45;2.05;;;;;;;14.70;100.00;98745.25;5055532;28;20025;-68
2022/05/13 02:49:30;;;;;;;4.50;2.20;;;;;;;14.70;99.61;98746.13;5045374;28;20025;-68
2022/05/13 02:51:56;;;;;;;7.55;2.10;;;;;;;14.74;98.76;98746.88;5045334;28;20029;-68
2022/05/13 02:54:21;;;;;;;3.65;2.35;;;;;;;14.76;98.15;98753.00;5046396;28;20025;-68
2022/05/13 02:56:46;;;;;;;6.75;2.20;;;;;;;14.80;98.35;98752.84;5045256;28;20021;-68
2022/05/13 02:59:12;;;;;;;5.97;2.83;;;;;;;14.81;98.21;98756.38;5057947;28;20066;-68
2022/05/13 03:01:37;;;;;;;2.75;2.10;;;;;;;14.77;98.80;98755.59;5064481;28;20347;-68
2022/05/13 03:04:03;;;;;;;7.18;2.63;;;;;;;14.74;99.06;98757.47;5064011;28;20037;-68
2022/05/13 03:06:29;;;;;;;6.80;2.42;;;;;;;14.72;99.30;98751.38;5064447;28;20032;-68
2022/05/13 03:08:55;;;;;;;4.78;2.25;;;;;;;14.69;99.27;98759.41;5055766;28;20060;-68
2022/05/13 03:11:21;;;;;;;4.82;2.45;;;;;;;14.70;99.60;98758.50;5064600;28;20025;-68
2022/05/13 03:13:48;;;;;;;4.55;2.38;;;;;;;14.65;100.00;98765.75;5064010;28;20080;-68
2022/05/13 03:16:19;;;;;;;4.07;2.38;;;;;;;14.65;100.00;98763.09;5064340;28;20336;-68
2022/05/13 03:18:46;;;;;;;4.70;2.55;;;;;;;14.72;99.77;98761.97;5064227;28;20017;-68
2022/05/13 03:21:12;;;;;;;5.53;2.67;;;;;;;14.76;99.03;98768.88;5045681;28;20030;-68
2022/05/13 03:23:42;;;;;;;4.47;2.38;;;;;;;14.79;98.78;98774.09;5049858;28;20194;-68
2022/05/13 03:26:08;;;;;;;4.15;2.58;;;;;;;14.82;98.14;98769.56;5064057;28;20063;-68
2022/05/13 03:28:34;;;;;;;6.32;2.30;;;;;;;14.84;97.75;98773.00;5063274;28;20020;-68
2022/05/13 03:30:59;;;;;;;4.65;2.47;;;;;;;14.83;97.52;98765.09;5058470;28;20036;-68
2022/05/13 03:33:24;;;;;;;6.95;2.28;;;;;;;14.79;98.97;98768.78;5062367;28;20024;-68
2022/05/13 03:35:49;;;;;;;5.65;2.58;;;;;;;14.71;99.32;98765.50;5063920;28;20198;-68
2022/05/13 03:38:15;;;;;;;5.90;2.97;;;;;;;14.72;99.51;98764.63;5054778;28;20029;-68
2022/05/13 03:40:40;;;;;;;5.00;2.55;;;;;;;14.79;98.33;98772.31;5044486;28;20025;-68
2022/05/13 03:43:06;;;;;;;11.23;2.67;;;;;;;14.81;98.26;98761.66;5045727;28;20320;-68
2022/05/13 03:45:34;;;;;;;5.85;3.13;;;;;;;14.68;98.61;98761.19;5045689;28;20048;-68
2022/05/13 03:48:00;;;;;;;5.70;2.55;;;;;;;14.67;99.71;98758.59;5063426;28;20020;-68
2022/05/13 03:50:27;;;;;;;5.40;3.00;;;;;;;14.64;99.33;98764.88;5063965;28;20098;-68
2022/05/13 03:52:53;;;;;;;11.70;3.10;;;;;;;14.68;98.71;98761.19;5048787;28;20025;-68
2022/05/13 03:55:19;;;;;;;5.25;3.15;;;;;;;14.70;99.19;98763.78;5044184;28;20040;-68
2022/05/13 03:57:44;;;;;;;6.75;2.95;;;;;;;14.67;99.33;98758.59;5044237;28;20025;-68
2022/05/13 04:00:10;;;;;;;7.35;2.55;;;;;;;14.61;98.61;98761.44;5044129;28;20246;-68
2022/05/13 04:02:36;;;;;;;3.10;2.05;;;;;;;14.66;99.10;98760.41;5059438;28;20020;-68
2022/05/13 04:10:31;;;;;;;6.57;2.97;;;;;;;14.73;99.55;98776.94;5062048;28;20135;-68
2022/05/13 04:18:25;;;;;;;5.15;2.72;;;;;;;14.72;99.66;98783.16;5063580;28;20268;-68
2022/05/13 04:20:50;;;;;;;4.20;2.55;;;;;;;14.71;99.35;98781.41;5057286;28;20021;-68
2022/05/13 04:23:17;;;;;;;6.93;2.58;;;;;;;14.64;99.43;98786.06;5059295;28;20047;-68
2022/05/13 04:25:43;;;;;;;5.70;2.75;;;;;;;14.65;99.63;98787.78;5061928;28;20074;-68
2022/05/13 04:28:08;;;;;;;6.72;2.63;;;;;;;14.70;99.00;98790.28;5063066;28;20044;-68
2022/05/13 04:30:34;;;;;;;4.72;2.97;;;;;;;14.67;99.40;98796.56;5052817;28;20070;-68
2022/05/13 04:32:59;;;;;;;9.90;3.00;;;;;;;14.62;99.94;98789.69;5049240;28;20186;-68
2022/05/13 04:35:24;;;;;;;6.05;3.05;;;;;;;14.62;100.00;98781.75;5050817;28;20029;-67
2022/05/13 04:37:50;;;;;;;6.78;2.92;;;;;;;14.69;100.00;98793.88;5063762;28;20221;-67
2022/05/13 04:40:15;;;;;;;6.28;3.10;;;;;;;14.73;100.00;98790.19;5064917;28;20025;-68
2022/05/13 04:42:49;;;;;;;5.35;2.80;;;;;;;14.73;99.05;98784.88;5067586;28;20386;-68
2022/05/13 04:45:34;;;;;;;8.73;2.72;;;;;;;14.77;99.36;98794.47;5067744;28;20044;-68
2022/05/13 04:48:17;;;;;;;4.72;2.50;;;;;;;14.86;99.12;98796.81;5067878;28;20021;-68
2022/05/13 04:50:48;;;;;;;11.20;2.92;;;;;;;15.13;98.34;98803.81;5067785;28;20025;-68
2022/05/13 04:53:17;;;;;;;5.20;2.72;;;;;;;15.54;97.63;98803.25;5067770;28;20360;-68
2022/05/13 04:55:42;;;;;;;5.45;2.83;;;;;;;16.33;92.80;98799.28;5067438;28;20028;-68
2022/05/13 04:58:08;;;;;;;4.60;2.65;;;;;;;16.63;89.76;98798.09;5067467;28;20324;-68
2022/05/13 05:00:33;;;;;;;6.95;2.30;;;;;;;16.44;89.88;98805.09;5067362;28;20025;-68
2022/05/13 05:02:58;;;;;;;3.30;2.60;;;;;;;16.77;90.36;98811.66;5067190;28;20099;-68
2022/05/13 05:05:24;;;;;;;2.97;2.03;;;;;;;17.11;86.78;98817.31;5067187;28;20037;-68
2022/05/13 05:07:49;;;;;;;5.63;2.50;;;;;;;17.00;86.43;98819.53;5067237;28;20067;-68
2022/05/13 05:10:14;;;;;;;2.55;1.90;;;;;;;17.27;86.49;98818.38;5067226;28;20035;-68
2022/05/13 05:12:40;;;;;;;4.25;2.88;;;;;;;17.73;84.78;98816.41;5067249;28;20067;-68
2022/05/13 05:15:07;;;;;;;4.35;2.20;;;;;;;18.09;83.17;98815.56;5067401;28;20347;-68
2022/05/13 05:17:32;;;;;;;3.55;2.45;;;;;;;18.50;80.95;98818.97;5066998;28;20025;-68
2022/05/13 05:19:58;;;;;;;6.10;2.05;;;;;;;18.98;77.76;98816.56;5067027;28;20028;-68
2022/05/13 05:22:23;;;;;;;6.22;2.50;;;;;;;19.15;75.53;98819.28;5066888;28;20041;-68
2022/05/13 05:24:48;;;;;;;5.57;2.40;;;;;;;19.21;73.08;98824.31;5066939;28;20025;-68
2022/05/13 05:27:14;;;;;;;9.30;2.40;;;;;;;19.16;69.45;98816.53;5066920;28;20070;-68
2022/05/13 05:29:39;;;;;;;7.93;2.78;;;;;;;19.22;69.13;98821.56;5066889;28;20312;-68
2022/05/13 05:32:05;;;;;;;12.52;2.30;;;;;;;19.27;68.74;98824.03;5066908;28;20024;-68
2022/05/13 05:34:30;;;;;;;6.50;2.35;;;;;;;19.37;69.34;98835.94;5067038;28;20021;-68
2022/05/13 05:36:56;;;;;;;7.47;2.20;;;;;;;19.47;68.22;98847.88;5066677;28;20032;-68
2022/05/13 05:39:21;;;;;;;6.82;1.98;;;;;;;19.79;66.90;98848.84;5066935;28;20020;-68
2022/05/13 05:41:47;;;;;;;17.80;2.67;;;;;;;19.75;66.89;98848.16;5066650;28;20025;-68
2022/05/13 05:44:12;;;;;;;9.73;2.55;;;;;;;19.72;66.33;98856.34;5066543;28;20033;-68
2022/05/13 05:46:38;;;;;;;4.03;1.70;;;;;;;19.82;66.25;98857.59;5066547;28;20088;-68
2022/05/13 05:49:04;;;;;;;10.82;2.65;;;;;;;19.47;67.24;98863.91;5066483;28;20021;-68
2022/05/13 05:51:29;;;;;;;11.35;2.35;;;;;;;19.16;66.67;98864.56;5065871;28;20017;-68
2022/05/13 05:59:24;;;;;;;7.75;2.72;;;;;;;19.88;66.25;98885.78;5066312;28;20100;-68
2022/05/13 06:01:49;;;;;;;5.07;1.80;;;;;;;20.39;62.56;98889.22;5066136;28;20024;-68
2022/05/13 06:04:15;;;;;;;6.07;1.80;;;;;;;20.37;60.64;98888.44;5066201;28;20060;-68
2022/05/13 06:06:40;;;;;;;7.47;2.08;;;;;;;20.93;61.53;98901.34;5066188;28;20043;-68
2022/05/13 06:09:05;;;;;;;4.15;1.58;;;;;;;21.90;59.28;98901.88;5066233;28;20020;-68
2022/05/13 06:11:30;;;;;;;4.95;1.67;;;;;;;22.08;59.39;98906.13;5066055;28;20025;-68
2022/05/13 06:13:58;;;;;;;7.60;2.00;;;;;;;22.01;56.61;98911.00;5066019;28;20020;-68
2022/05/13 06:16:25;;;;;;;7.15;2.08;;;;;;;22.21;53.92;98917.81;5066181;28;20099;-68
2022/05/13 06:18:51;;;;;;;3.30;1.35;;;;;;;22.56;55.05;98924.56;5065913;28;20024;-68
2022/05/13 06:21:16;;;;;;;3.45;1.35;;;;;;;23.04;53.83;98924.13;5065912;28;20040;-68
2022/05/13 06:23:42;;;;;;;2.97;1.33;;;;;;;22.88;55.06;98928.75;5066065;28;20025;-68
2022/05/13 06:26:07;;;;;;;9.20;2.10;;;;;;;22.61;51.81;98931.38;5065861;28;20029;-68
2022/05/13 06:28:33;;;;;;;3.53;1.45;;;;;;;22.86;51.66;98928.84;5065682;28;20080;-68
2022/05/13 06:30:59;;;;;;;4.70;1.40;;;;;;;22.92;51.05;98938.31;5065967;28;20088;-68
2022/05/13 06:33:25;;;;;;;4.68;1.63;;;;;;;22.72;50.28;98928.00;5065655;28;20212;-68
2022/05/13 06:35:51;;;;;;;5.10;1.38;;;;;;;23.15;50.97;98935.88;5065855;28;20025;-69
2022/05/13 06:38:20;;;;;;;2.85;1.30;;;;;;;23.35;50.90;98936.44;5065829;28;20024;-69
2022/05/13 06:40:47;;;;;;;5.82;1.90;;;;;;;23.25;51.65;98939.72;5065792;28;20021;-69
2022/05/13 06:43:13;;;;;;;3.92;1.45;;;;;;;23.45;52.14;98943.78;5065310;28;20093;-69
2022/05/13 06:45:38;;;;;;;3.15;1.33;;;;;;;23.66;49.05;98947.72;5065384;28;20025;-69
2022/05/13 06:48:05;;;;;;;6.32;1.20;;;;;;;24.22;47.79;98958.19;5065396;28;20028;-69
2022/05/13 06:50:32;;;;;;;7.10;1.77;;;;;;;24.42;47.50;98954.97;5065312;28;20344;-69
2022/05/13 06:52:57;;;;;;;4.60;1.38;;;;;;;24.77;47.65;98956.06;5065274;28;20027;-69
2022/05/13 06:55:23;;;;;;;5.32;1.60;;;;;;;24.31;47.09;98962.94;5065212;28;20025;-69
2022/05/13 06:57:48;;;;;;;3.05;1.88;;;;;;;23.85;48.26;98961.63;5065225;28;20025;-69
2022/05/13 07:00:14;;;;;;;9.35;1.50;;;;;;;24.30;47.36;98969.25;5065151;28;20051;-69
2022/05/13 07:02:40;;;;;;;4.63;1.58;;;;;;;24.01;46.34;98969.56;5064865;28;20021;-69
2022/05/13 07:05:07;;;;;;;7.95;1.95;;;;;;;23.59;48.93;98961.66;5065019;28;20205;-69
2022/05/13 07:07:33;;;;;;;4.32;1.33;;;;;;;23.36;47.21;98965.88;5065215;28;20023;-69
2022/05/13 07:09:58;;;;;;;2.80;1.50;;;;;;;23.67;49.39;98976.34;5064939;28;20020;-69
2022/05/13 07:12:23;;;;;;;3.25;1.38;;;;;;;23.92;47.23;98971.00;5065167;28;20080;-69
2022/05/13 07:14:49;;;;;;;5.53;1.25;;;;;;;24.01;48.01;98975.78;5064893;28;20032;-69
2022/05/13 07:17:14;;;;;;;4.28;1.20;;;;;;;23.69;47.51;98973.53;5064887;28;20020;-69
2022/05/13 07:19:40;;;;;;;8.75;1.70;;;;;;;24.43;44.96;98971.97;5064784;28;20020;-69
2022/05/13 07:22:06;;;;;;;3.58;0.90;;;;;;;24.71;45.69;98967.25;5064760;28;20024;-69
2022/05/13 07:24:31;;;;;;;8.05;1.25;;;;;;;24.78;44.24;98968.53;5064961;28;20044;-69
2022/05/13 07:26:58;;;;;;;7.03;1.50;;;;;;;25.10;43.81;98972.50;5064662;28;20066;-69
2022/05/13 07:29:23;;;;;;;6.00;1.38;;;;;;;25.61;42.72;98970.50;5064613;28;20029;-69
2022/05/13 07:31:49;;;;;;;2.25;1.13;;;;;;;25.86;42.02;98965.00;5064575;28;20093;-68
2022/05/13 07:34:14;;;;;;;6.25;1.55;;;;;;;25.23;45.32;98973.31;5064520;28;20062;-68
2022/05/13 07:36:39;;;;;;;6.35;1.40;;;;;;;25.24;45.76;98969.63;5064791;28;20024;-68
2022/05/13 07:41:49;;;;;;;5.15;1.52;;;;;;;25.89;41.39;98966.59;5064396;28;20066;-68
2022/05/13 07:44:15;;;;;;;3.72;1.23;;;;;;;25.89;41.76;98969.28;5064294;28;20029;-68
2022/05/13 07:46:41;;;;;;;4.22;0.95;;;;;;;26.03;42.42;98971.81;5064536;28;20021;-68
2022/05/13 07:49:07;;;;;;;6.77;1.40;;;;;;;26.18;40.92;98976.03;5064337;28;20093;-68
2022/05/13 07:51:33;;;;;;;4.68;1.20;;;;;;;25.44;41.35;98968.22;5064155;28;20253;-68
2022/05/13 07:53:59;;;;;;;6.85;1.30;;;;;;;25.96;42.44;98970.53;5064166;28;20021;-68
2022/05/13 07:56:24;;;;;;;7.10;1.52;;;;;;;25.65;42.73;98976.53;5064165;28;20031;-68
2022/05/13 07:58:50;;;;;;;6.53;1.23;;;;;;;26.00;41.07;98969.38;5064113;28;20025;-68
2022/05/13 08:01:16;;;;;;;4.30;1.30;;;;;;;26.37;40.96;98976.34;5064166;28;20025;-68
2022/05/13 08:03:43;;;;;;;5.57;1.20;;;;;;;26.83;40.38;98974.47;5063748;28;20032;-68
2022/05/13 08:06:09;;;;;;;2.50;1.00;;;;;;;26.43;41.13;98975.84;5064083;28;20025;-68
2022/05/13 08:08:41;;;;;;;4.45;1.33;;;;;;;25.90;42.22;98971.00;5064067;28;20021;-68
2022/05/13 08:11:10;;;;;;;3.17;1.05;;;;;;;26.07;41.79;98967.91;5064058;28;20037;-68
2022/05/13 08:13:35;;;;;;;7.45;1.65;;;;;;;26.06;41.10;98979.66;5063916;28;20017;-68
2022/05/13 08:16:04;;;;;;;4.68;1.40;;;;;;;25.16;43.31;98969.31;5063688;28;20025;-68
2022/05/13 08:18:30;;;;;;;4.32;1.30;;;;;;;26.16;40.78;98975.31;5063851;28;20021;-68
2022/05/13 08:20:56;;;;;;;6.88;1.30;;;;;;;26.39;40.89;98974.38;5063804;28;20025;-68
2022/05/13 08:23:21;;;;;;;7.63;1.42;;;;;;;26.72;40.97;98975.31;5063781;28;20035;-68
2022/05/13 08:25:48;;;;;;;5.07;1.45;;;;;;;26.15;42.53;98966.34;5063845;28;20107;-68
2022/05/13 08:28:14;;;;;;;5.57;1.48;;;;;;;26.60;41.16;98975.38;5063819;28;20031;-68
2022/05/13 08:30:41;;;;;;;6.43;1.77;;;;;;;25.91;40.66;98967.34;5063735;28;20033;-68
2022/05/13 08:33:09;;;;;;;5.28;1.30;;;;;;;25.84;41.55;98969.63;5063714;28;20021;-68
2022/05/13 08:35:41;;;;;;;5.80;1.48;;;;;;;25.70;40.64;98968.94;5063859;28;20016;-68
2022/05/13 08:38:06;;;;;;;;;;;;;;;25.38;41.45;98962.41;5064120;28;20032;-68
2022/05/13 08:40:47;;;;;;;3.72;1.30;;;;;;;25.53;42.35;98972.06;5063643;28;19905;-68
2022/05/13 08:43:16;;;;;;;1.70;1.00;;;;;;;26.18;41.11;98970.63;5063628;28;20055;-68
2022/05/13 08:45:50;;;;;;;6.32;1.52;;;;;;;25.75;42.93;98969.47;5063699;28;20074;-68
2022/05/13 08:48:20;;;;;;;3.58;1.27;;;;;;;25.76;43.28;98969.38;5063616;28;20092;-68
2022/05/13 08:50:53;;;;;;;4.03;1.33;;;;;;;25.84;42.27;98968.78;5063843;28;20216;-68
2022/05/13 08:53:33;;;;;;;5.97;1.80;;;;;;;26.34;39.77;98971.16;5063541;28;20198;-68
2022/05/13 08:56:07;;;;;;;2.97;1.20;;;;;;;25.45;42.16;98959.16;5063789;28;20021;-68
2022/05/13 08:58:53;;;;;;;8.13;1.75;;;;;;;25.91;40.67;98967.34;5063484;28;20247;-68
2022/05/13 09:01:25;;;;;;;7.28;1.60;;;;;;;26.45;40.19;98973.91;5063499;28;20198;-68
2022/05/13 09:03:57;;;;;;;3.17;1.30;;;;;;;25.96;41.66;98962.44;5063371;28;20041;-68
2022/05/13 09:06:41;;;;;;;3.80;1.40;;;;;;;26.08;40.72;98958.84;5063465;28;20031;-68
2022/05/13 09:09:09;;;;;;;6.45;1.10;;;;;;;26.29;40.37;98957.19;5063458;28;20025;-68
2022/05/13 09:11:38;;;;;;;6.20;1.45;;;;;;;26.23;43.08;98954.97;5063388;28;20366;-68
2022/05/13 09:14:25;;;;;;;5.97;1.85;;;;;;;26.50;40.96;98959.06;5063351;28;20025;-68
2022/05/13 09:17:30;;;;;;;2.80;1.00;;;;;;;26.68;41.35;98956.78;5063364;28;20029;-68
2022/05/13 09:20:16;;;;;;;6.50;1.52;;;;;;;26.56;41.42;98960.41;5063330;28;20025;-68
2022/05/13 09:22:51;;;;;;;4.22;0.90;;;;;;;26.12;39.83;98954.91;5063251;28;20357;-68
2022/05/13 09:25:32;;;;;;;4.13;1.30;;;;;;;26.03;40.69;98952.91;5063509;28;20017;-68
2022/05/13 09:28:00;;;;;;;4.22;0.73;;;;;;;25.89;39.66;98955.78;5065462;28;20028;-68
2022/05/13 09:30:36;;;;;;;6.13;1.20;;;;;;;25.61;40.36;98948.06;5067127;28;20028;-68
2022/05/13 09:33:38;;;;;;;6.57;0.75;;;;;;;25.92;39.75;98952.88;5066765;28;20021;-68
2022/05/13 09:36:08;;;;;;;4.63;1.25;;;;;;;26.10;40.07;98962.28;5064984;28;20320;-68
2022/05/13 09:38:46;;;;;;;3.30;0.95;;;;;;;26.40;38.78;98957.19;5064978;28;20325;-68
2022/05/13 09:41:13;;;;;;;1.98;0.80;;;;;;;26.28;40.38;98961.72;5065040;28;20056;-68
2022/05/13 09:43:51;;;;;;;2.58;0.90;;;;;;;26.17;39.37;98948.22;5064895;28;20036;-68
2022/05/13 09:46:35;;;;;;;4.30;1.00;;;;;;;26.26;39.34;98958.25;5064910;28;20035;-68
2022/05/13 09:49:04;;;;;;;2.38;1.05;;;;;;;25.84;40.90;98947.22;5064833;28;20100;-68
2022/05/13 09:51:53;;;;;;;3.60;0.80;;;;;;;26.33;40.19;98937.94;5064750;28;20039;-68
2022/05/13 09:54:27;;;;;;;2.97;0.63;;;;;;;26.56;38.92;98949.59;5064685;28;20016;-68
2022/05/13 09:57:14;;;;;;;4.00;0.90;;;;;;;26.27;39.87;98949.22;5064648;28;20036;-68
2022/05/13 09:59:44;;;;;;;3.83;0.85;;;;;;;26.33;39.57;98955.97;5064607;28;20051;-68
2022/05/13 10:02:35;;;;;;;2.90;0.77;;;;;;;25.94;40.76;98940.97;5064502;28;20075;-68
2022/05/13 10:05:21;;;;;;;4.03;0.90;;;;;;;25.90;39.81;98944.03;5064399;28;20272;-68
2022/05/13 10:07:53;;;;;;;2.45;0.80;;;;;;;26.09;41.07;98949.75;5064469;28;20054;-68
2022/05/13 10:15:58;;;;;;;4.15;0.75;;;;;;;26.31;38.84;98950.69;5065997;28;20031;-68
2022/05/13 10:18:29;;;;;;;2.22;0.95;;;;;;;25.98;42.28;98937.13;5065971;28;20079;-68
2022/05/13 10:21:01;;;;;;;2.90;1.00;;;;;;;26.13;42.38;98937.78;5065966;28;20028;-68
2022/05/13 10:23:32;;;;;;;3.13;1.15;;;;;;;25.92;39.57;98942.06;5065787;28;20017;-68
2022/05/13 10:26:19;;;;;;;3.90;0.82;;;;;;;26.16;39.74;98946.47;5065834;28;20316;-68
2022/05/13 10:29:09;;;;;;;3.13;0.70;;;;;;;26.29;38.70;98935.59;5050604;28;20070;-68
2022/05/13 10:31:40;;;;;;;4.38;0.98;;;;;;;26.26;40.86;98942.06;5048691;28;20029;-68
2022/05/13 10:34:24;;;;;;;4.13;1.00;;;;;;;25.98;40.56;98941.66;5064647;28;20302;-68
2022/05/13 10:37:15;;;;;;;3.63;0.90;;;;;;;26.22;39.14;98939.72;5047914;28;20064;-68
2022/05/13 10:39:51;;;;;;;3.25;0.95;;;;;;;26.66;40.66;98945.22;5053396;28;20029;-68
2022/05/13 10:42:20;;;;;;;3.15;0.60;;;;;;;26.92;40.15;98944.00;5049368;28;20210;-68
2022/05/13 10:44:55;;;;;;;3.50;1.27;;;;;;;26.54;39.17;98943.50;5045566;28;20111;-68
2022/05/13 10:47:43;;;;;;;3.65;0.80;;;;;;;26.14;37.34;98936.78;5045507;28;20103;-68
2022/05/13 10:50:19;;;;;;;3.50;0.82;;;;;;;25.81;40.01;98928.56;5051103;28;20027;-68
2022/05/13 10:53:05;;;;;;;2.53;0.93;;;;;;;25.99;38.60;98930.72;5065281;28;20021;-68
2022/05/13 10:55:58;;;;;;;4.13;0.65;;;;;;;25.94;40.14;98930.19;5065516;28;20020;-68
2022/05/13 10:58:50;;;;;;;4.18;0.88;;;;;;;25.71;40.95;98931.09;5065205;28;20059;-68
2022/05/13 11:01:44;;;;;;;2.58;0.90;;;;;;;25.96;39.96;98932.75;5053877;28;20221;-68
2022/05/13 11:04:30;;;;;;;4.10;0.65;;;;;;;25.80;39.08;98926.81;5053286;28;20048;-68
2022/05/13 11:07:04;;;;;;;3.58;0.90;;;;;;;25.74;39.73;98922.75;5047557;28;20220;-68
2022/05/13 11:09:49;;;;;;;2.05;0.82;;;;;;;25.32;41.46;98919.75;5044468;28;20092;-68
2022/05/13 11:12:50;;;;;;;3.60;1.00;;;;;;;25.99;41.73;98921.78;5044051;28;20078;-68
2022/05/13 11:15:49;;;;;;;5.50;1.00;;;;;;;26.20;38.41;98915.56;5044013;28;20022;-68
2022/05/13 11:18:54;;;;;;;2.75;1.38;;;;;;;26.36;39.63;98920.63;5043528;28;20028;-68
2022/05/13 11:21:24;;;;;;;2.60;0.65;;;;;;;25.94;40.97;98914.00;5043895;28;20079;-68
2022/05/13 11:27:32;;;;;;;1.80;0.82;;;;;;;25.42;41.38;98913.56;5059265;28;20232;-68
2022/05/13 11:30:08;;;;;;;2.80;0.90;;;;;;;24.63;42.32;98910.38;5063694;28;20029;-68
2022/05/13 11:32:58;;;;;;;1.13;0.50;;;;;;;24.62;42.53;98911.34;5063234;28;20313;-68
2022/05/13 11:35:40;;;;;;;1.95;0.70;;;;;;;24.30;41.87;98907.38;5063561;28;20159;-68
2022/05/13 11:38:20;;;;;;;0.90;0.70;;;;;;;23.69;44.11;98903.66;5062022;28;20028;-68
2022/05/13 11:40:51;;;;;;;4.82;1.05;;;;;;;23.74;42.96;98907.75;5065679;28;20025;-68
2022/05/13 11:43:40;;;;;;;3.53;1.08;;;;;;;23.76;43.49;98899.59;5056445;28;20068;-68
2022/05/13 11:46:29;;;;;;;3.72;0.90;;;;;;;23.58;45.22;98904.38;5043089;28;20037;-68
2022/05/13 11:49:10;;;;;;;1.50;0.85;;;;;;;23.59;42.27;98903.41;5061451;28;20092;-68
2022/05/13 11:51:37;;;;;;;0.90;0.60;;;;;;;23.47;45.37;98904.22;5056344;28;20025;-68
2022/05/13 11:54:10;;;;;;;1.00;0.70;;;;;;;23.17;46.29;98895.50;5044319;28;20025;-68
2022/05/13 11:56:38;;;;;;;1.20;0.90;;;;;;;23.32;45.43;98904.41;5044313;28;20033;-68
2022/05/13 11:59:12;;;;;;;3.22;0.73;;;;;;;23.06;46.94;98903.38;5053843;28;20048;-68
2022/05/13 12:02:06;;;;;;;2.53;0.90;;;;;;;22.93;43.17;98902.44;5057839;28;20028;-68
2022/05/13 12:04:34;;;;;;;3.75;0.80;;;;;;;22.87;43.67;98902.84;5043807;28;20037;-68
2022/05/13 12:07:27;;;;;;;2.25;0.95;;;;;;;22.86;42.13;98901.13;5044365;28;20280;-68
2022/05/13 12:09:54;;;;;;;4.68;1.02;;;;;;;22.66;42.29;98893.50;5044080;28;20021;-68
2022/05/13 12:12:34;;;;;;;2.08;0.60;;;;;;;22.67;44.30;98889.84;5043975;28;20029;-68
2022/05/13 12:15:25;;;;;;;2.42;0.70;;;;;;;22.57;45.27;98903.00;5044013;28;20037;-68
2022/05/13 12:18:05;;;;;;;1.60;0.75;;;;;;;22.41;46.52;98904.03;5043993;28;20332;-68
2022/05/13 12:20:45;;;;;;;2.15;0.60;;;;;;;22.55;44.75;98901.34;5044168;28;20093;-68
2022/05/13 12:23:22;;;;;;;4.97;1.10;;;;;;;22.22;44.76;98898.09;5043838;28;20067;-68